Terminal Aerodrome Forecast
Issued by NWS

Home | Current Version | Previous Version | Text Only | Print | Product List | Glossary On
Versions: 1 2 3 4 5 6 7 8 9 10 11 12 13 14 15
000
FTUS46 KSEW 191120
TAFBLI
TAF
KBLI 191120Z 1912/2012 15015G25KT P6SM SCT025 BKN040
     FM191400 15015G25KT P6SM -SHRA SCT025 BKN040
     FM192100 15015G25KT P6SM -SHRA BKN025 BKN050
     FM200400 16015G25KT P6SM -SHRA BKN015 OVC025=

USA.gov is the U.S. government's official web portal to all federal, state and local government web resources and services.